sensor_id;sensor_type;location;lat;lon;timestamp;temperature;humidity
20349;DHT22;10332;50.208;18.988;2022-12-18T00:01:29;-1.80;91.00
20349;DHT22;10332;50.208;18.988;2022-12-18T00:04:00;-1.90;91.00
20349;DHT22;10332;50.208;18.988;2022-12-18T00:06:29;-1.90;90.80
20349;DHT22;10332;50.208;18.988;2022-12-18T00:08:58;-1.90;91.10
20349;DHT22;10332;50.208;18.988;2022-12-18T00:11:29;-1.80;91.00
20349;DHT22;10332;50.208;18.988;2022-12-18T00:13:59;-1.80;91.20
20349;DHT22;10332;50.208;18.988;2022-12-18T00:16:28;-1.80;91.50
20349;DHT22;10332;50.208;18.988;2022-12-18T00:19:03;-1.70;91.30
20349;DHT22;10332;50.208;18.988;2022-12-18T00:21:32;-1.70;90.80
20349;DHT22;10332;50.208;18.988;2022-12-18T00:24:00;-1.70;90.50
20349;DHT22;10332;50.208;18.988;2022-12-18T00:26:30;-1.70;90.50
20349;DHT22;10332;50.208;18.988;2022-12-18T00:29:07;-1.70;90.10
20349;DHT22;10332;50.208;18.988;2022-12-18T00:31:41;-1.70;90.00
20349;DHT22;10332;50.208;18.988;2022-12-18T00:34:11;-1.70;90.10
20349;DHT22;10332;50.208;18.988;2022-12-18T00:36:40;-1.70;90.10
20349;DHT22;10332;50.208;18.988;2022-12-18T00:39:09;-1.70;90.00
20349;DHT22;10332;50.208;18.988;2022-12-18T00:41:37;-1.70;90.00
20349;DHT22;10332;50.208;18.988;2022-12-18T00:44:23;-1.70;90.10
20349;DHT22;10332;50.208;18.988;2022-12-18T00:46:50;-1.70;90.10
20349;DHT22;10332;50.208;18.988;2022-12-18T00:49:19;-1.70;89.50
20349;DHT22;10332;50.208;18.988;2022-12-18T00:51:47;-1.60;89.70
20349;DHT22;10332;50.208;18.988;2022-12-18T00:54:15;-1.60;90.00
20349;DHT22;10332;50.208;18.988;2022-12-18T00:56:42;-1.50;89.70
20349;DHT22;10332;50.208;18.988;2022-12-18T00:59:18;-1.60;87.70
20349;DHT22;10332;50.208;18.988;2022-12-18T01:01:46;-1.60;87.40
20349;DHT22;10332;50.208;18.988;2022-12-18T01:04:14;-1.60;86.90
20349;DHT22;10332;50.208;18.988;2022-12-18T01:06:41;-1.70;87.50
20349;DHT22;10332;50.208;18.988;2022-12-18T01:09:10;-1.70;87.80
20349;DHT22;10332;50.208;18.988;2022-12-18T01:11:39;-1.80;88.00
20349;DHT22;10332;50.208;18.988;2022-12-18T01:14:07;-1.80;89.20
20349;DHT22;10332;50.208;18.988;2022-12-18T01:16:35;-1.70;88.90
20349;DHT22;10332;50.208;18.988;2022-12-18T01:19:02;-1.80;89.70
20349;DHT22;10332;50.208;18.988;2022-12-18T01:21:30;-1.80;90.20
20349;DHT22;10332;50.208;18.988;2022-12-18T01:23:58;-1.80;90.40
20349;DHT22;10332;50.208;18.988;2022-12-18T01:26:26;-1.80;90.20
20349;DHT22;10332;50.208;18.988;2022-12-18T01:28:57;-1.80;90.10
20349;DHT22;10332;50.208;18.988;2022-12-18T01:31:30;-1.90;90.40
20349;DHT22;10332;50.208;18.988;2022-12-18T01:34:03;-1.90;91.00
20349;DHT22;10332;50.208;18.988;2022-12-18T01:36:35;-1.90;91.10
20349;DHT22;10332;50.208;18.988;2022-12-18T01:39:11;-1.90;91.10
20349;DHT22;10332;50.208;18.988;2022-12-18T01:41:39;-1.90;91.40
20349;DHT22;10332;50.208;18.988;2022-12-18T01:45:00;-1.90;91.10
20349;DHT22;10332;50.208;18.988;2022-12-18T01:47:33;-1.90;91.50
20349;DHT22;10332;50.208;18.988;2022-12-18T01:52:55;-2.00;90.90
20349;DHT22;10332;50.208;18.988;2022-12-18T01:55:30;-2.00;91.50
20349;DHT22;10332;50.208;18.988;2022-12-18T01:58:02;-2.00;91.50
20349;DHT22;10332;50.208;18.988;2022-12-18T02:00:31;-2.00;91.50
20349;DHT22;10332;50.208;18.988;2022-12-18T02:02:58;-2.00;91.20
20349;DHT22;10332;50.208;18.988;2022-12-18T02:05:50;-2.10;91.40
20349;DHT22;10332;50.208;18.988;2022-12-18T02:08:42;-2.10;91.80
20349;DHT22;10332;50.208;18.988;2022-12-18T02:11:53;-2.10;92.00
20349;DHT22;10332;50.208;18.988;2022-12-18T02:17:33;-2.20;92.30
20349;DHT22;10332;50.208;18.988;2022-12-18T02:20:11;-2.20;92.50
20349;DHT22;10332;50.208;18.988;2022-12-18T02:22:51;-2.20;92.30
20349;DHT22;10332;50.208;18.988;2022-12-18T02:25:38;-2.20;92.30
20349;DHT22;10332;50.208;18.988;2022-12-18T02:28:16;-2.20;92.40
20349;DHT22;10332;50.208;18.988;2022-12-18T02:30:49;-2.20;92.40
20349;DHT22;10332;50.208;18.988;2022-12-18T02:33:21;-2.10;92.30
20349;DHT22;10332;50.208;18.988;2022-12-18T02:35:51;-2.20;92.00
20349;DHT22;10332;50.208;18.988;2022-12-18T02:38:22;-2.20;92.20
20349;DHT22;10332;50.208;18.988;2022-12-18T02:40:53;-2.20;92.90
20349;DHT22;10332;50.208;18.988;2022-12-18T02:43:21;-2.20;92.90
20349;DHT22;10332;50.208;18.988;2022-12-18T02:45:52;-2.10;93.00
20349;DHT22;10332;50.208;18.988;2022-12-18T02:48:29;-2.00;93.10
20349;DHT22;10332;50.208;18.988;2022-12-18T02:51:19;-2.00;92.20
20349;DHT22;10332;50.208;18.988;2022-12-18T02:54:13;-2.00;91.90
20349;DHT22;10332;50.208;18.988;2022-12-18T02:56:53;-2.00;91.50
20349;DHT22;10332;50.208;18.988;2022-12-18T02:59:31;-2.00;91.60
20349;DHT22;10332;50.208;18.988;2022-12-18T03:02:21;-2.00;91.60
20349;DHT22;10332;50.208;18.988;2022-12-18T03:10:28;-2.00;91.70
20349;DHT22;10332;50.208;18.988;2022-12-18T03:13:10;-2.00;91.60
20349;DHT22;10332;50.208;18.988;2022-12-18T03:15:47;-2.00;91.70
20349;DHT22;10332;50.208;18.988;2022-12-18T03:18:23;-2.10;92.10
20349;DHT22;10332;50.208;18.988;2022-12-18T03:20:58;-2.10;92.20
20349;DHT22;10332;50.208;18.988;2022-12-18T03:23:34;-2.10;92.70
20349;DHT22;10332;50.208;18.988;2022-12-18T03:26:14;-2.00;92.70
20349;DHT22;10332;50.208;18.988;2022-12-18T03:28:49;-2.00;92.30
20349;DHT22;10332;50.208;18.988;2022-12-18T03:31:23;-2.00;92.30
20349;DHT22;10332;50.208;18.988;2022-12-18T03:33:55;-2.00;92.30
20349;DHT22;10332;50.208;18.988;2022-12-18T03:36:26;-2.00;92.10
20349;DHT22;10332;50.208;18.988;2022-12-18T03:38:54;-1.90;92.20
20349;DHT22;10332;50.208;18.988;2022-12-18T03:41:39;-2.00;92.30
20349;DHT22;10332;50.208;18.988;2022-12-18T03:44:42;-2.00;91.90
20349;DHT22;10332;50.208;18.988;2022-12-18T03:47:31;-2.00;92.00
20349;DHT22;10332;50.208;18.988;2022-12-18T03:53:51;-2.00;91.80
20349;DHT22;10332;50.208;18.988;2022-12-18T03:56:28;-2.10;91.90
20349;DHT22;10332;50.208;18.988;2022-12-18T03:59:01;-2.00;91.70
20349;DHT22;10332;50.208;18.988;2022-12-18T04:01:34;-2.10;92.20
20349;DHT22;10332;50.208;18.988;2022-12-18T04:04:06;-2.10;92.60
20349;DHT22;10332;50.208;18.988;2022-12-18T04:06:37;-2.10;92.90
20349;DHT22;10332;50.208;18.988;2022-12-18T04:09:07;-2.10;92.90
20349;DHT22;10332;50.208;18.988;2022-12-18T04:11:34;-2.00;93.30
20349;DHT22;10332;50.208;18.988;2022-12-18T04:14:02;-2.00;93.00
20349;DHT22;10332;50.208;18.988;2022-12-18T04:16:33;-2.00;92.70
20349;DHT22;10332;50.208;18.988;2022-12-18T04:19:00;-2.00;93.20
20349;DHT22;10332;50.208;18.988;2022-12-18T04:21:28;-2.00;92.70
20349;DHT22;10332;50.208;18.988;2022-12-18T04:23:55;-2.00;92.30
20349;DHT22;10332;50.208;18.988;2022-12-18T04:26:22;-2.00;92.30
20349;DHT22;10332;50.208;18.988;2022-12-18T04:28:50;-2.00;92.60
20349;DHT22;10332;50.208;18.988;2022-12-18T04:31:17;-2.00;92.90
20349;DHT22;10332;50.208;18.988;2022-12-18T04:33:45;-2.00;93.20
20349;DHT22;10332;50.208;18.988;2022-12-18T04:36:12;-2.00;92.60
20349;DHT22;10332;50.208;18.988;2022-12-18T04:38:40;-2.00;92.30
20349;DHT22;10332;50.208;18.988;2022-12-18T04:41:07;-2.00;92.40
20349;DHT22;10332;50.208;18.988;2022-12-18T04:43:35;-2.00;92.90
20349;DHT22;10332;50.208;18.988;2022-12-18T04:46:07;-2.10;93.00
20349;DHT22;10332;50.208;18.988;2022-12-18T04:48:36;-2.10;93.10
20349;DHT22;10332;50.208;18.988;2022-12-18T04:51:05;-2.10;93.10
20349;DHT22;10332;50.208;18.988;2022-12-18T04:53:33;-2.00;93.00
20349;DHT22;10332;50.208;18.988;2022-12-18T04:56:08;-2.10;93.20
20349;DHT22;10332;50.208;18.988;2022-12-18T04:58:39;-2.00;93.10
20349;DHT22;10332;50.208;18.988;2022-12-18T05:01:07;-2.00;93.20
20349;DHT22;10332;50.208;18.988;2022-12-18T05:03:37;-2.00;92.60
20349;DHT22;10332;50.208;18.988;2022-12-18T05:06:06;-2.00;92.60
20349;DHT22;10332;50.208;18.988;2022-12-18T05:08:34;-2.00;93.00
20349;DHT22;10332;50.208;18.988;2022-12-18T05:11:05;-2.00;93.30
20349;DHT22;10332;50.208;18.988;2022-12-18T05:13:37;-2.00;93.40
20349;DHT22;10332;50.208;18.988;2022-12-18T05:16:06;-2.00;92.80
20349;DHT22;10332;50.208;18.988;2022-12-18T05:18:35;-2.00;92.80
20349;DHT22;10332;50.208;18.988;2022-12-18T05:21:02;-1.90;92.60
20349;DHT22;10332;50.208;18.988;2022-12-18T05:23:30;-2.00;92.30
20349;DHT22;10332;50.208;18.988;2022-12-18T05:26:00;-2.00;92.30
20349;DHT22;10332;50.208;18.988;2022-12-18T05:28:30;-2.00;92.40
20349;DHT22;10332;50.208;18.988;2022-12-18T05:31:00;-2.00;92.60
20349;DHT22;10332;50.208;18.988;2022-12-18T05:33:32;-2.00;92.70
20349;DHT22;10332;50.208;18.988;2022-12-18T05:36:03;-2.00;92.30
20349;DHT22;10332;50.208;18.988;2022-12-18T05:38:34;-2.00;92.50
20349;DHT22;10332;50.208;18.988;2022-12-18T05:41:04;-2.00;93.00
20349;DHT22;10332;50.208;18.988;2022-12-18T05:43:34;-1.90;93.00
20349;DHT22;10332;50.208;18.988;2022-12-18T05:46:08;-1.90;92.50
20349;DHT22;10332;50.208;18.988;2022-12-18T05:48:40;-1.90;92.30
20349;DHT22;10332;50.208;18.988;2022-12-18T05:51:11;-1.80;92.80
20349;DHT22;10332;50.208;18.988;2022-12-18T05:53:42;-1.90;92.80
20349;DHT22;10332;50.208;18.988;2022-12-18T05:56:15;-1.90;91.80
20349;DHT22;10332;50.208;18.988;2022-12-18T05:58:51;-2.00;91.40
20349;DHT22;10332;50.208;18.988;2022-12-18T06:01:23;-2.00;92.00
20349;DHT22;10332;50.208;18.988;2022-12-18T06:03:52;-2.00;92.70
20349;DHT22;10332;50.208;18.988;2022-12-18T06:06:26;-2.10;92.40
20349;DHT22;10332;50.208;18.988;2022-12-18T06:08:55;-2.10;92.80
20349;DHT22;10332;50.208;18.988;2022-12-18T06:11:25;-2.10;93.10
20349;DHT22;10332;50.208;18.988;2022-12-18T06:13:55;-2.10;93.10
20349;DHT22;10332;50.208;18.988;2022-12-18T06:16:26;-2.10;93.20
20349;DHT22;10332;50.208;18.988;2022-12-18T06:18:59;-2.00;92.80
20349;DHT22;10332;50.208;18.988;2022-12-18T06:21:29;-2.00;93.30
20349;DHT22;10332;50.208;18.988;2022-12-18T06:23:58;-2.00;93.30
20349;DHT22;10332;50.208;18.988;2022-12-18T06:26:26;-2.00;92.50
20349;DHT22;10332;50.208;18.988;2022-12-18T06:28:54;-2.00;92.80
20349;DHT22;10332;50.208;18.988;2022-12-18T06:31:22;-2.00;92.70
20349;DHT22;10332;50.208;18.988;2022-12-18T06:33:50;-1.90;92.40
20349;DHT22;10332;50.208;18.988;2022-12-18T06:36:17;-2.00;92.00
20349;DHT22;10332;50.208;18.988;2022-12-18T06:38:44;-2.00;91.90
20349;DHT22;10332;50.208;18.988;2022-12-18T06:41:17;-2.00;92.50
20349;DHT22;10332;50.208;18.988;2022-12-18T06:43:47;-2.00;92.40
20349;DHT22;10332;50.208;18.988;2022-12-18T06:46:14;-1.90;92.20
20349;DHT22;10332;50.208;18.988;2022-12-18T06:48:42;-1.90;92.00
20349;DHT22;10332;50.208;18.988;2022-12-18T06:51:19;-1.90;91.80
20349;DHT22;10332;50.208;18.988;2022-12-18T06:53:48;-1.90;91.60
20349;DHT22;10332;50.208;18.988;2022-12-18T06:56:15;-1.90;91.50
20349;DHT22;10332;50.208;18.988;2022-12-18T06:58:43;-1.90;91.50
20349;DHT22;10332;50.208;18.988;2022-12-18T07:01:12;-1.90;91.70
20349;DHT22;10332;50.208;18.988;2022-12-18T07:03:42;-1.80;91.50
20349;DHT22;10332;50.208;18.988;2022-12-18T07:06:18;-1.80;91.50
20349;DHT22;10332;50.208;18.988;2022-12-18T07:08:48;-1.80;91.40
20349;DHT22;10332;50.208;18.988;2022-12-18T07:11:17;-1.80;91.10
20349;DHT22;10332;50.208;18.988;2022-12-18T07:13:45;-1.80;91.70
20349;DHT22;10332;50.208;18.988;2022-12-18T07:16:19;-1.70;91.40
20349;DHT22;10332;50.208;18.988;2022-12-18T07:18:53;-1.70;91.20
20349;DHT22;10332;50.208;18.988;2022-12-18T07:21:22;-1.60;91.10
20349;DHT22;10332;50.208;18.988;2022-12-18T07:23:51;-1.60;91.00
20349;DHT22;10332;50.208;18.988;2022-12-18T07:26:20;-1.50;90.80
20349;DHT22;10332;50.208;18.988;2022-12-18T07:28:49;-1.50;90.20
20349;DHT22;10332;50.208;18.988;2022-12-18T07:31:20;-1.50;89.60
20349;DHT22;10332;50.208;18.988;2022-12-18T07:33:49;-1.40;89.60
20349;DHT22;10332;50.208;18.988;2022-12-18T07:36:18;-1.30;88.40
20349;DHT22;10332;50.208;18.988;2022-12-18T07:38:50;-1.20;87.30
20349;DHT22;10332;50.208;18.988;2022-12-18T07:41:20;-1.10;86.80
20349;DHT22;10332;50.208;18.988;2022-12-18T07:43:48;-1.00;87.70
20349;DHT22;10332;50.208;18.988;2022-12-18T07:46:16;-0.90;85.70
20349;DHT22;10332;50.208;18.988;2022-12-18T07:48:45;-0.80;85.80
20349;DHT22;10332;50.208;18.988;2022-12-18T07:51:16;-0.70;84.30
20349;DHT22;10332;50.208;18.988;2022-12-18T07:53:45;-0.60;83.80
20349;DHT22;10332;50.208;18.988;2022-12-18T07:56:19;-0.50;81.40
20349;DHT22;10332;50.208;18.988;2022-12-18T07:58:58;-0.30;80.20
20349;DHT22;10332;50.208;18.988;2022-12-18T08:01:26;-0.10;76.50
20349;DHT22;10332;50.208;18.988;2022-12-18T08:03:54;0.10;75.70
20349;DHT22;10332;50.208;18.988;2022-12-18T08:06:22;0.40;76.20
20349;DHT22;10332;50.208;18.988;2022-12-18T08:08:52;0.70;72.80
20349;DHT22;10332;50.208;18.988;2022-12-18T08:11:21;0.90;70.20
20349;DHT22;10332;50.208;18.988;2022-12-18T08:13:50;1.00;69.30
20349;DHT22;10332;50.208;18.988;2022-12-18T08:16:19;1.10;68.30
20349;DHT22;10332;50.208;18.988;2022-12-18T08:18:47;1.20;67.70
20349;DHT22;10332;50.208;18.988;2022-12-18T08:21:23;1.20;64.60
20349;DHT22;10332;50.208;18.988;2022-12-18T08:23:53;1.30;63.20
20349;DHT22;10332;50.208;18.988;2022-12-18T08:26:24;1.30;59.40
20349;DHT22;10332;50.208;18.988;2022-12-18T08:28:54;1.30;59.70
20349;DHT22;10332;50.208;18.988;2022-12-18T08:31:23;1.40;61.40
20349;DHT22;10332;50.208;18.988;2022-12-18T08:33:52;1.60;62.10
20349;DHT22;10332;50.208;18.988;2022-12-18T08:36:22;1.80;59.80
20349;DHT22;10332;50.208;18.988;2022-12-18T08:38:51;2.10;56.30
20349;DHT22;10332;50.208;18.988;2022-12-18T08:41:18;2.40;54.60
20349;DHT22;10332;50.208;18.988;2022-12-18T08:43:46;3.20;53.60
20349;DHT22;10332;50.208;18.988;2022-12-18T08:46:39;4.00;52.00
20349;DHT22;10332;50.208;18.988;2022-12-18T08:49:10;4.80;45.30
20349;DHT22;10332;50.208;18.988;2022-12-18T08:51:39;5.70;36.60
20349;DHT22;10332;50.208;18.988;2022-12-18T08:54:06;6.30;33.40
20349;DHT22;10332;50.208;18.988;2022-12-18T08:56:34;7.00;27.70
20349;DHT22;10332;50.208;18.988;2022-12-18T08:59:02;7.40;18.50
20349;DHT22;10332;50.208;18.988;2022-12-18T09:01:31;7.70;10.40
20349;DHT22;10332;50.208;18.988;2022-12-18T09:04:00;7.80;8.70
20349;DHT22;10332;50.208;18.988;2022-12-18T09:06:27;8.00;5.50
20349;DHT22;10332;50.208;18.988;2022-12-18T09:08:54;8.60;5.80
20349;DHT22;10332;50.208;18.988;2022-12-18T09:11:24;9.10;1.00
20349;DHT22;10332;50.208;18.988;2022-12-18T09:13:54;9.10;1.00
20349;DHT22;10332;50.208;18.988;2022-12-18T09:16:24;8.80;1.00
20349;DHT22;10332;50.208;18.988;2022-12-18T09:18:58;8.50;1.00
20349;DHT22;10332;50.208;18.988;2022-12-18T09:21:32;8.70;1.00
20349;DHT22;10332;50.208;18.988;2022-12-18T09:24:04;9.80;1.00
20349;DHT22;10332;50.208;18.988;2022-12-18T09:26:35;10.60;1.00
20349;DHT22;10332;50.208;18.988;2022-12-18T09:29:03;11.50;1.00
20349;DHT22;10332;50.208;18.988;2022-12-18T09:31:31;12.30;1.00
20349;DHT22;10332;50.208;18.988;2022-12-18T09:33:58;13.40;1.00
20349;DHT22;10332;50.208;18.988;2022-12-18T09:36:26;14.40;1.00
20349;DHT22;10332;50.208;18.988;2022-12-18T09:38:53;15.50;1.00
20349;DHT22;10332;50.208;18.988;2022-12-18T09:44:18;17.20;1.00
20349;DHT22;10332;50.208;18.988;2022-12-18T09:47:02;17.80;1.00
20349;DHT22;10332;50.208;18.988;2022-12-18T09:49:37;18.30;1.00
20349;DHT22;10332;50.208;18.988;2022-12-18T10:00:52;17.80;1.00
20349;DHT22;10332;50.208;18.988;2022-12-18T10:03:20;16.00;1.00
20349;DHT22;10332;50.208;18.988;2022-12-18T10:06:25;14.30;1.00
20349;DHT22;10332;50.208;18.988;2022-12-18T10:09:41;12.10;1.00
20349;DHT22;10332;50.208;18.988;2022-12-18T10:15:24;9.70;1.00
20349;DHT22;10332;50.208;18.988;2022-12-18T10:20:54;8.80;1.00
20349;DHT22;10332;50.208;18.988;2022-12-18T10:23:56;8.60;1.00
20349;DHT22;10332;50.208;18.988;2022-12-18T10:26:26;8.40;1.00
20349;DHT22;10332;50.208;18.988;2022-12-18T10:28:53;8.30;1.00
20349;DHT22;10332;50.208;18.988;2022-12-18T10:31:24;8.30;1.00
20349;DHT22;10332;50.208;18.988;2022-12-18T10:33:54;8.30;1.00
20349;DHT22;10332;50.208;18.988;2022-12-18T10:36:24;8.10;1.00
20349;DHT22;10332;50.208;18.988;2022-12-18T10:38:51;7.80;1.00
20349;DHT22;10332;50.208;18.988;2022-12-18T10:46:39;8.30;1.00
20349;DHT22;10332;50.208;18.988;2022-12-18T10:49:21;8.20;1.00
20349;DHT22;10332;50.208;18.988;2022-12-18T10:51:51;8.10;1.00
20349;DHT22;10332;50.208;18.988;2022-12-18T10:54:35;8.30;1.00
20349;DHT22;10332;50.208;18.988;2022-12-18T10:57:39;9.70;1.00
20349;DHT22;10332;50.208;18.988;2022-12-18T11:00:28;11.80;1.00
20349;DHT22;10332;50.208;18.988;2022-12-18T11:02:57;14.10;1.00
20349;DHT22;10332;50.208;18.988;2022-12-18T11:05:32;14.40;1.00
20349;DHT22;10332;50.208;18.988;2022-12-18T11:08:01;14.20;1.00
20349;DHT22;10332;50.208;18.988;2022-12-18T11:10:36;13.50;1.00
20349;DHT22;10332;50.208;18.988;2022-12-18T11:13:18;12.70;1.00
20349;DHT22;10332;50.208;18.988;2022-12-18T11:15:49;11.90;1.00
20349;DHT22;10332;50.208;18.988;2022-12-18T11:18:22;11.50;1.00
20349;DHT22;10332;50.208;18.988;2022-12-18T11:20:57;11.30;1.00
20349;DHT22;10332;50.208;18.988;2022-12-18T11:23:34;11.40;1.00
20349;DHT22;10332;50.208;18.988;2022-12-18T11:26:04;11.10;1.00
20349;DHT22;10332;50.208;18.988;2022-12-18T11:29:07;10.50;1.00
20349;DHT22;10332;50.208;18.988;2022-12-18T11:31:36;10.10;1.00
20349;DHT22;10332;50.208;18.988;2022-12-18T11:34:10;9.80;1.00
20349;DHT22;10332;50.208;18.988;2022-12-18T11:36:59;9.70;1.00
20349;DHT22;10332;50.208;18.988;2022-12-18T11:39:41;9.80;1.00
20349;DHT22;10332;50.208;18.988;2022-12-18T11:42:40;10.80;1.00
20349;DHT22;10332;50.208;18.988;2022-12-18T11:47:58;16.70;1.00
20349;DHT22;10332;50.208;18.988;2022-12-18T11:50:56;19.40;1.00
20349;DHT22;10332;50.208;18.988;2022-12-18T11:53:26;21.20;1.00
20349;DHT22;10332;50.208;18.988;2022-12-18T11:56:43;22.00;1.00
20349;DHT22;10332;50.208;18.988;2022-12-18T12:01:50;22.40;1.00
20349;DHT22;10332;50.208;18.988;2022-12-18T12:13:27;18.80;1.00
20349;DHT22;10332;50.208;18.988;2022-12-18T12:19:19;22.10;1.00
20349;DHT22;10332;50.208;18.988;2022-12-18T12:22:12;23.00;1.00
20349;DHT22;10332;50.208;18.988;2022-12-18T12:31:57;24.60;1.00
20349;DHT22;10332;50.208;18.988;2022-12-18T12:37:33;24.20;1.00
20349;DHT22;10332;50.208;18.988;2022-12-18T12:40:04;24.60;1.00
20349;DHT22;10332;50.208;18.988;2022-12-18T12:42:59;25.10;1.00
20349;DHT22;10332;50.208;18.988;2022-12-18T12:46:00;25.30;1.00
20349;DHT22;10332;50.208;18.988;2022-12-18T12:51:32;25.70;1.00
20349;DHT22;10332;50.208;18.988;2022-12-18T12:54:05;25.50;1.00
20349;DHT22;10332;50.208;18.988;2022-12-18T13:02:42;25.20;1.00
20349;DHT22;10332;50.208;18.988;2022-12-18T13:05:25;25.00;1.00
20349;DHT22;10332;50.208;18.988;2022-12-18T13:08:21;24.90;1.00
20349;DHT22;10332;50.208;18.988;2022-12-18T13:10:58;24.70;1.00
20349;DHT22;10332;50.208;18.988;2022-12-18T13:13:53;24.40;1.00
20349;DHT22;10332;50.208;18.988;2022-12-18T13:16:25;24.30;1.00
20349;DHT22;10332;50.208;18.988;2022-12-18T13:18:57;23.90;1.00
20349;DHT22;10332;50.208;18.988;2022-12-18T13:21:28;23.40;1.00
20349;DHT22;10332;50.208;18.988;2022-12-18T13:24:24;23.00;1.00
20349;DHT22;10332;50.208;18.988;2022-12-18T13:26:54;22.80;1.00
20349;DHT22;10332;50.208;18.988;2022-12-18T13:29:44;22.50;1.00
20349;DHT22;10332;50.208;18.988;2022-12-18T13:32:22;21.90;1.00
20349;DHT22;10332;50.208;18.988;2022-12-18T13:37:52;21.10;1.00
20349;DHT22;10332;50.208;18.988;2022-12-18T13:43:30;20.00;1.00
20349;DHT22;10332;50.208;18.988;2022-12-18T13:51:25;18.60;1.00
20349;DHT22;10332;50.208;18.988;2022-12-18T13:53:55;18.20;1.00
20349;DHT22;10332;50.208;18.988;2022-12-18T13:56:31;17.90;1.00
20349;DHT22;10332;50.208;18.988;2022-12-18T14:01:58;16.80;1.00
20349;DHT22;10332;50.208;18.988;2022-12-18T14:04:35;16.20;1.00
20349;DHT22;10332;50.208;18.988;2022-12-18T14:07:16;15.10;1.00
20349;DHT22;10332;50.208;18.988;2022-12-18T14:09:55;13.80;1.00
20349;DHT22;10332;50.208;18.988;2022-12-18T14:12:46;12.90;1.00
20349;DHT22;10332;50.208;18.988;2022-12-18T14:15:42;12.10;1.00
20349;DHT22;10332;50.208;18.988;2022-12-18T14:18:33;11.10;1.00
20349;DHT22;10332;50.208;18.988;2022-12-18T14:24:23;9.20;1.00
20349;DHT22;10332;50.208;18.988;2022-12-18T14:26:51;8.20;1.00
20349;DHT22;10332;50.208;18.988;2022-12-18T14:29:30;7.40;1.00
20349;DHT22;10332;50.208;18.988;2022-12-18T14:32:11;6.60;1.00
20349;DHT22;10332;50.208;18.988;2022-12-18T14:34:45;5.80;1.00
20349;DHT22;10332;50.208;18.988;2022-12-18T14:37:23;5.20;1.00
20349;DHT22;10332;50.208;18.988;2022-12-18T14:39:57;4.60;1.00
20349;DHT22;10332;50.208;18.988;2022-12-18T14:42:26;3.90;1.00
20349;DHT22;10332;50.208;18.988;2022-12-18T14:45:33;3.50;1.00
20349;DHT22;10332;50.208;18.988;2022-12-18T14:48:42;3.00;1.00
20349;DHT22;10332;50.208;18.988;2022-12-18T14:51:22;2.50;1.00
20349;DHT22;10332;50.208;18.988;2022-12-18T14:53:57;2.20;1.00
20349;DHT22;10332;50.208;18.988;2022-12-18T14:56:30;1.90;1.00
20349;DHT22;10332;50.208;18.988;2022-12-18T14:59:13;1.70;1.00
20349;DHT22;10332;50.208;18.988;2022-12-18T15:04:40;1.40;1.00
20349;DHT22;10332;50.208;18.988;2022-12-18T15:07:20;1.20;1.00
20349;DHT22;10332;50.208;18.988;2022-12-18T15:10:15;1.10;1.00
20349;DHT22;10332;50.208;18.988;2022-12-18T15:20:57;0.60;1.00
20349;DHT22;10332;50.208;18.988;2022-12-18T15:23:56;0.50;1.00
20349;DHT22;10332;50.208;18.988;2022-12-18T15:26:36;0.30;1.00
20349;DHT22;10332;50.208;18.988;2022-12-18T15:29:05;0.20;1.00
20349;DHT22;10332;50.208;18.988;2022-12-18T15:31:38;0.10;1.00
20349;DHT22;10332;50.208;18.988;2022-12-18T15:34:13;-0.10;1.00
20349;DHT22;10332;50.208;18.988;2022-12-18T15:36:49;-0.20;1.00
20349;DHT22;10332;50.208;18.988;2022-12-18T15:39:17;-0.40;1.00
20349;DHT22;10332;50.208;18.988;2022-12-18T15:41:45;-0.40;1.00
20349;DHT22;10332;50.208;18.988;2022-12-18T15:44:33;-0.60;3.00
20349;DHT22;10332;50.208;18.988;2022-12-18T15:47:01;-0.70;9.60
20349;DHT22;10332;50.208;18.988;2022-12-18T15:49:28;-0.70;11.90
20349;DHT22;10332;50.208;18.988;2022-12-18T15:52:01;-0.80;14.60
20349;DHT22;10332;50.208;18.988;2022-12-18T15:54:28;-0.90;19.50
20349;DHT22;10332;50.208;18.988;2022-12-18T15:57:14;-1.00;21.40
20349;DHT22;10332;50.208;18.988;2022-12-18T15:59:52;-1.00;23.20
20349;DHT22;10332;50.208;18.988;2022-12-18T16:02:21;-1.10;24.60
20349;DHT22;10332;50.208;18.988;2022-12-18T16:04:51;-1.20;26.10
20349;DHT22;10332;50.208;18.988;2022-12-18T16:07:20;-1.30;26.20
20349;DHT22;10332;50.208;18.988;2022-12-18T16:09:52;-1.30;27.60
20349;DHT22;10332;50.208;18.988;2022-12-18T16:12:22;-1.40;28.70
20349;DHT22;10332;50.208;18.988;2022-12-18T16:14:51;-1.50;30.30
20349;DHT22;10332;50.208;18.988;2022-12-18T16:17:19;-1.60;31.00
20349;DHT22;10332;50.208;18.988;2022-12-18T16:19:47;-1.60;32.00
20349;DHT22;10332;50.208;18.988;2022-12-18T16:22:23;-1.70;35.10
20349;DHT22;10332;50.208;18.988;2022-12-18T16:24:55;-1.80;36.00
20349;DHT22;10332;50.208;18.988;2022-12-18T16:27:24;-1.90;36.30
20349;DHT22;10332;50.208;18.988;2022-12-18T16:29:52;-1.90;36.50
20349;DHT22;10332;50.208;18.988;2022-12-18T16:32:21;-2.10;37.20
20349;DHT22;10332;50.208;18.988;2022-12-18T16:34:50;-2.00;38.70
20349;DHT22;10332;50.208;18.988;2022-12-18T16:37:18;-2.10;40.20
20349;DHT22;10332;50.208;18.988;2022-12-18T16:39:45;-2.20;40.40
20349;DHT22;10332;50.208;18.988;2022-12-18T16:42:16;-2.20;41.90
20349;DHT22;10332;50.208;18.988;2022-12-18T16:44:47;-2.30;43.60
20349;DHT22;10332;50.208;18.988;2022-12-18T16:47:16;-2.40;44.90
20349;DHT22;10332;50.208;18.988;2022-12-18T16:49:45;-2.40;44.50
20349;DHT22;10332;50.208;18.988;2022-12-18T16:52:13;-2.40;44.00
20349;DHT22;10332;50.208;18.988;2022-12-18T16:54:40;-2.50;45.00
20349;DHT22;10332;50.208;18.988;2022-12-18T16:57:12;-2.50;45.00
20349;DHT22;10332;50.208;18.988;2022-12-18T16:59:41;-2.60;45.00
20349;DHT22;10332;50.208;18.988;2022-12-18T17:02:14;-2.60;46.00
20349;DHT22;10332;50.208;18.988;2022-12-18T17:04:43;-2.70;47.30
20349;DHT22;10332;50.208;18.988;2022-12-18T17:07:12;-2.70;50.00
20349;DHT22;10332;50.208;18.988;2022-12-18T17:09:40;-2.80;50.00
20349;DHT22;10332;50.208;18.988;2022-12-18T17:12:08;-2.80;53.20
20349;DHT22;10332;50.208;18.988;2022-12-18T17:14:36;-2.90;54.80
20349;DHT22;10332;50.208;18.988;2022-12-18T17:17:04;-2.90;56.00
20349;DHT22;10332;50.208;18.988;2022-12-18T17:19:50;-3.00;57.60
20349;DHT22;10332;50.208;18.988;2022-12-18T17:22:19;-3.10;60.40
20349;DHT22;10332;50.208;18.988;2022-12-18T17:24:49;-3.20;63.60
20349;DHT22;10332;50.208;18.988;2022-12-18T17:27:17;-3.30;65.80
20349;DHT22;10332;50.208;18.988;2022-12-18T17:29:44;-3.40;67.00
20349;DHT22;10332;50.208;18.988;2022-12-18T17:32:15;-3.40;68.80
20349;DHT22;10332;50.208;18.988;2022-12-18T17:34:44;-3.40;71.30
20349;DHT22;10332;50.208;18.988;2022-12-18T17:37:12;-3.50;74.30
20349;DHT22;10332;50.208;18.988;2022-12-18T17:39:40;-3.50;74.90
20349;DHT22;10332;50.208;18.988;2022-12-18T17:42:08;-3.60;75.40
20349;DHT22;10332;50.208;18.988;2022-12-18T17:44:41;-3.60;77.00
20349;DHT22;10332;50.208;18.988;2022-12-18T17:47:08;-3.60;77.50